createdAt,value
2022-12-17T00:03:56.879Z,-4.93
2022-12-17T00:09:00.557Z,-4.95
2022-12-17T00:14:04.733Z,-4.92
2022-12-17T00:19:08.909Z,-4.89
2022-12-17T00:24:13.101Z,-4.85
2022-12-17T00:29:17.222Z,-4.80
2022-12-17T00:34:21.396Z,-4.77
2022-12-17T00:39:25.550Z,-4.74
2022-12-17T00:44:29.760Z,-4.67
2022-12-17T00:49:33.918Z,-4.62
2022-12-17T00:54:38.067Z,-4.54
2022-12-17T00:59:42.238Z,-4.50
2022-12-17T01:04:46.375Z,-4.46
2022-12-17T01:09:50.540Z,-4.45
2022-12-17T01:14:54.876Z,-4.44
2022-12-17T01:19:58.920Z,-4.46
2022-12-17T01:25:03.059Z,-4.44
2022-12-17T01:30:07.212Z,-4.41
2022-12-17T01:35:11.394Z,-4.43
2022-12-17T01:45:19.727Z,-4.46
2022-12-17T01:50:23.893Z,-4.48
2022-12-17T01:55:28.084Z,-4.49
2022-12-17T02:00:30.333Z,-4.52
2022-12-17T02:05:34.523Z,-4.51
2022-12-17T02:10:38.683Z,-4.52
2022-12-17T02:15:42.849Z,-4.53
2022-12-17T02:20:47.024Z,-4.52
2022-12-17T02:25:51.199Z,-4.58
2022-12-17T02:30:55.332Z,-4.63
2022-12-17T02:35:59.519Z,-4.64
2022-12-17T02:41:03.687Z,-4.70
2022-12-17T02:46:07.947Z,-4.76
2022-12-17T02:51:12.040Z,-4.84
2022-12-17T02:56:16.406Z,-4.82
2022-12-17T03:01:20.525Z,-4.85
2022-12-17T03:06:24.541Z,-4.87
2022-12-17T03:11:28.730Z,-4.93
2022-12-17T03:16:37.262Z,-4.93
2022-12-17T03:21:37.052Z,-4.94
2022-12-17T03:26:41.200Z,-4.98
2022-12-17T03:31:45.376Z,-4.98
2022-12-17T03:36:49.543Z,-4.98
2022-12-17T03:41:53.731Z,-4.96
2022-12-17T03:46:57.882Z,-5.03
2022-12-17T03:52:02.058Z,-5.07
2022-12-17T03:57:06.215Z,-5.13
2022-12-17T04:02:10.608Z,-5.10
2022-12-17T04:07:14.555Z,-5.03
2022-12-17T04:12:18.765Z,-5.04
2022-12-17T04:17:22.894Z,-5.03
2022-12-17T04:22:27.033Z,-5.00
2022-12-17T04:27:31.199Z,-5.02
2022-12-17T04:32:35.738Z,-4.97
2022-12-17T04:37:39.575Z,-4.96
2022-12-17T04:42:43.728Z,-4.91
2022-12-17T04:47:47.887Z,-4.93
2022-12-17T04:52:52.082Z,-4.90
2022-12-17T04:57:56.253Z,-4.86
2022-12-17T05:03:00.560Z,-4.81
2022-12-17T05:08:04.585Z,-4.80
2022-12-17T05:13:08.769Z,-4.76
2022-12-17T05:18:12.911Z,-4.73
2022-12-17T05:23:17.081Z,-4.70
2022-12-17T05:28:21.264Z,-4.70
2022-12-17T05:33:25.423Z,-4.69
2022-12-17T05:38:29.574Z,-4.65
2022-12-17T05:43:34.126Z,-4.68
2022-12-17T05:48:37.909Z,-4.65
2022-12-17T05:53:42.094Z,-4.66
2022-12-17T05:58:46.279Z,-4.68
2022-12-17T06:03:50.597Z,-4.70
2022-12-17T06:08:54.600Z,-4.75
2022-12-17T06:13:58.778Z,-4.73
2022-12-17T06:19:02.942Z,-4.76
2022-12-17T06:24:07.127Z,-4.82
2022-12-17T06:29:11.244Z,-4.87
2022-12-17T06:34:15.439Z,-4.86
2022-12-17T06:39:19.593Z,-4.89
2022-12-17T06:44:23.777Z,-4.89
2022-12-17T06:49:27.994Z,-4.89
2022-12-17T06:54:32.106Z,-4.91
2022-12-17T06:59:36.276Z,-4.92
2022-12-17T07:04:40.456Z,-4.92
2022-12-17T07:09:44.637Z,-4.91
2022-12-17T07:14:48.782Z,-4.92
2022-12-17T07:19:52.958Z,-4.98
2022-12-17T07:24:57.126Z,-5.02
2022-12-17T07:29:59.385Z,-5.04
2022-12-17T07:35:03.564Z,-5.13
2022-12-17T07:40:07.749Z,-5.21
2022-12-17T07:45:11.885Z,-5.27
2022-12-17T07:50:16.069Z,-5.34
2022-12-17T07:55:20.221Z,-5.43
2022-12-17T08:00:24.429Z,-5.54
2022-12-17T08:05:28.600Z,-5.70
2022-12-17T08:10:32.738Z,-5.80
2022-12-17T08:15:36.928Z,-5.90
2022-12-17T08:20:41.109Z,-5.97
2022-12-17T08:25:45.249Z,-6.03
2022-12-17T08:30:49.481Z,-6.09
2022-12-17T08:35:53.600Z,-6.14
2022-12-17T08:40:57.731Z,-6.14
2022-12-17T08:46:02.006Z,-6.14
2022-12-17T08:51:06.118Z,-6.13
2022-12-17T08:56:10.243Z,-6.12
2022-12-17T09:01:14.633Z,-6.14
2022-12-17T09:06:18.599Z,-6.14
2022-12-17T09:11:22.802Z,-6.17
2022-12-17T09:16:26.958Z,-6.17
2022-12-17T09:21:31.095Z,-6.13
2022-12-17T09:26:35.300Z,-6.15
2022-12-17T09:31:39.448Z,-6.13
2022-12-17T09:36:49.556Z,-6.13
2022-12-17T09:41:47.779Z,-6.19
2022-12-17T09:46:51.962Z,-6.14
2022-12-17T09:51:56.098Z,-6.10
2022-12-17T09:57:00.326Z,-6.07
2022-12-17T10:02:04.637Z,-6.07
2022-12-17T10:07:08.662Z,-6.02
2022-12-17T10:12:12.829Z,-5.92
2022-12-17T10:17:16.988Z,-5.85
2022-12-17T10:22:21.150Z,-5.83
2022-12-17T10:27:25.289Z,-5.76
2022-12-17T10:32:29.483Z,-5.75
2022-12-17T10:37:33.711Z,-5.69
2022-12-17T10:42:37.827Z,-5.63
2022-12-17T10:47:41.994Z,-5.50
2022-12-17T10:52:46.157Z,-5.50
2022-12-17T10:57:50.350Z,-5.34
2022-12-17T11:02:54.750Z,-5.27
2022-12-17T11:07:58.652Z,-5.12
2022-12-17T11:13:02.835Z,-5.02
2022-12-17T11:18:11.414Z,-4.90
2022-12-17T11:23:11.201Z,-4.77
2022-12-17T11:28:15.367Z,-4.74
2022-12-17T11:33:19.524Z,-4.64
2022-12-17T11:38:23.674Z,-4.64
2022-12-17T11:43:27.847Z,-4.57
2022-12-17T11:48:32.030Z,-4.38
2022-12-17T11:53:36.202Z,-4.24
2022-12-17T11:58:40.478Z,-4.04
2022-12-17T12:03:44.687Z,-3.93
2022-12-17T12:08:48.957Z,-3.82
2022-12-17T12:13:52.871Z,-3.74
2022-12-17T12:18:57.006Z,-3.60
2022-12-17T12:24:01.199Z,-3.49
2022-12-17T12:29:05.388Z,-3.47
2022-12-17T12:34:09.524Z,-3.37
2022-12-17T12:39:13.687Z,-3.33
2022-12-17T12:44:17.888Z,-3.26
2022-12-17T12:49:22.027Z,-3.15
2022-12-17T12:54:26.223Z,-3.07
2022-12-17T12:59:28.462Z,-3.15
2022-12-17T13:04:32.672Z,-3.05
2022-12-17T13:09:36.822Z,-3.12
2022-12-17T13:14:40.972Z,-3.09
2022-12-17T13:19:45.155Z,-3.03
2022-12-17T13:24:49.329Z,-2.92
2022-12-17T13:29:51.607Z,-2.85
2022-12-17T13:34:53.871Z,-2.92
2022-12-17T13:39:58.023Z,-2.93
2022-12-17T13:45:02.222Z,-2.94
2022-12-17T13:50:34.869Z,-2.94
2022-12-17T13:55:10.551Z,-2.93
2022-12-17T14:00:14.686Z,-2.94
2022-12-17T14:05:18.902Z,-2.89
2022-12-17T14:10:23.027Z,-2.82
2022-12-17T14:15:27.209Z,-2.78
2022-12-17T14:20:31.367Z,-2.73
2022-12-17T14:25:35.529Z,-2.71
2022-12-17T14:30:50.890Z,-2.76
2022-12-17T14:35:43.962Z,-2.86
2022-12-17T14:40:48.008Z,-2.89
2022-12-17T14:45:52.285Z,-2.84
2022-12-17T14:50:56.340Z,-2.92
2022-12-17T14:56:00.527Z,-2.97
2022-12-17T15:01:04.847Z,-3.04
2022-12-17T15:06:08.887Z,-3.30
2022-12-17T15:11:13.018Z,-3.51
2022-12-17T15:16:17.315Z,-3.70
2022-12-17T15:21:21.372Z,-3.97
2022-12-17T15:26:27.975Z,-4.06
2022-12-17T15:31:35.181Z,-4.17
2022-12-17T15:36:33.874Z,-4.37
2022-12-17T15:41:38.066Z,-4.57
2022-12-17T15:46:42.319Z,-4.67
2022-12-17T15:51:46.400Z,-4.79
2022-12-17T15:56:50.543Z,-4.92
2022-12-17T16:01:54.863Z,-4.99
2022-12-17T16:06:58.886Z,-5.05
2022-12-17T16:12:03.036Z,-5.11
2022-12-17T16:17:07.230Z,-5.20
2022-12-17T16:22:11.453Z,-5.33
2022-12-17T16:27:15.545Z,-5.52
2022-12-17T16:32:19.731Z,-5.56
2022-12-17T16:37:23.872Z,-5.59
2022-12-17T16:42:28.122Z,-5.69
2022-12-17T16:52:36.427Z,-5.90
2022-12-17T16:57:40.548Z,-6.03
2022-12-17T17:02:49.981Z,-6.13
2022-12-17T17:07:48.941Z,-6.21
2022-12-17T17:12:53.104Z,-6.35
2022-12-17T17:18:01.790Z,-6.37
2022-12-17T17:23:01.444Z,-6.21
2022-12-17T17:28:05.610Z,-6.23
2022-12-17T17:33:09.740Z,-6.20
2022-12-17T17:38:13.928Z,-6.15
2022-12-17T17:43:18.118Z,-6.24
2022-12-17T17:48:22.256Z,-6.48
2022-12-17T17:53:26.453Z,-6.64
2022-12-17T17:58:30.602Z,-6.83
2022-12-17T18:03:34.866Z,-6.79
2022-12-17T18:08:39.222Z,-6.75
2022-12-17T18:13:43.145Z,-6.85
2022-12-17T18:18:47.280Z,-6.86
2022-12-17T18:23:51.446Z,-6.92
2022-12-17T18:28:55.624Z,-6.99
2022-12-17T18:33:59.927Z,-7.06
2022-12-17T18:39:03.952Z,-7.02
2022-12-17T18:44:08.180Z,-7.01
2022-12-17T18:49:12.301Z,-7.05
2022-12-17T18:54:16.465Z,-7.16
2022-12-17T18:59:24.239Z,-7.29
2022-12-17T19:04:22.947Z,-7.34
2022-12-17T19:09:27.074Z,-7.42
2022-12-17T19:14:31.245Z,-7.35
2022-12-17T19:19:35.462Z,-7.40
2022-12-17T19:24:39.599Z,-7.47
2022-12-17T19:29:47.651Z,-7.52
2022-12-17T19:34:47.951Z,-7.53
2022-12-17T19:39:52.090Z,-7.59
2022-12-17T19:44:56.309Z,-7.63
2022-12-17T19:50:00.469Z,-7.70
2022-12-17T19:55:04.646Z,-7.75
2022-12-17T20:00:08.787Z,-7.72
2022-12-17T20:05:12.947Z,-7.88
2022-12-17T20:10:17.132Z,-7.74
2022-12-17T20:15:21.342Z,-7.82
2022-12-17T20:20:25.514Z,-7.91
2022-12-17T20:25:29.632Z,-7.78
2022-12-17T20:30:33.820Z,-7.65
2022-12-17T20:35:38.004Z,-7.63
2022-12-17T20:40:42.164Z,-7.69
2022-12-17T20:45:46.360Z,-7.78
2022-12-17T20:50:50.526Z,-7.87
2022-12-17T21:00:58.918Z,-7.93
2022-12-17T21:06:03.005Z,-7.92
2022-12-17T21:11:07.196Z,-7.73
2022-12-17T21:16:11.337Z,-7.57
2022-12-17T21:21:15.524Z,-7.69
2022-12-17T21:26:20.741Z,-7.84
2022-12-17T21:31:23.918Z,-7.61
2022-12-17T21:36:28.262Z,-7.52
2022-12-17T21:41:32.217Z,-7.47
2022-12-17T21:46:36.464Z,-7.57
2022-12-17T21:51:40.563Z,-7.56
2022-12-17T21:56:44.750Z,-7.43
2022-12-17T22:01:49.274Z,-7.45
2022-12-17T22:07:05.247Z,-7.39
2022-12-17T22:11:57.251Z,-7.47
2022-12-17T22:17:01.378Z,-7.47
2022-12-17T22:22:05.592Z,-7.37
2022-12-17T22:32:13.890Z,-7.30
2022-12-17T22:40:24.397Z,-7.13
2022-12-17T22:44:42.077Z,-7.12
2022-12-17T22:47:26.391Z,-7.18
2022-12-17T22:52:30.592Z,-7.24
2022-12-17T22:57:38.030Z,-7.27
2022-12-17T23:02:39.015Z,-7.23
2022-12-17T23:07:43.127Z,-7.24
2022-12-17T23:12:47.317Z,-7.20
2022-12-17T23:17:51.454Z,-7.19
2022-12-17T23:22:55.780Z,-7.32
2022-12-17T23:27:59.776Z,-7.37
2022-12-17T23:33:03.941Z,-7.33
2022-12-17T23:38:08.112Z,-7.40
2022-12-17T23:48:16.453Z,-7.37
2022-12-17T23:53:20.661Z,-7.48
2022-12-17T23:58:24.792Z,-7.33
